sensor_id;sensor_type;location;lat;lon;timestamp;temperature;humidity
15160;DHT22;7680;48.800;9.680;2023-04-24T00:02:29;10.30;99.90
15160;DHT22;7680;48.800;9.680;2023-04-24T00:05:03;10.20;99.90
15160;DHT22;7680;48.800;9.680;2023-04-24T00:07:37;10.20;99.90
15160;DHT22;7680;48.800;9.680;2023-04-24T00:10:10;10.20;99.90
15160;DHT22;7680;48.800;9.680;2023-04-24T00:12:44;10.30;99.90
15160;DHT22;7680;48.800;9.680;2023-04-24T00:15:17;10.20;99.90
15160;DHT22;7680;48.800;9.680;2023-04-24T00:17:51;10.20;99.90
15160;DHT22;7680;48.800;9.680;2023-04-24T00:20:25;10.20;99.90
15160;DHT22;7680;48.800;9.680;2023-04-24T00:22:59;10.20;99.90
15160;DHT22;7680;48.800;9.680;2023-04-24T00:25:32;10.10;99.90
15160;DHT22;7680;48.800;9.680;2023-04-24T00:28:06;10.10;99.90
15160;DHT22;7680;48.800;9.680;2023-04-24T00:30:39;10.10;99.90
15160;DHT22;7680;48.800;9.680;2023-04-24T00:33:14;10.10;99.90
15160;DHT22;7680;48.800;9.680;2023-04-24T00:35:47;10.10;99.90
15160;DHT22;7680;48.800;9.680;2023-04-24T00:38:20;10.10;99.90
15160;DHT22;7680;48.800;9.680;2023-04-24T00:40:53;10.10;99.90
15160;DHT22;7680;48.800;9.680;2023-04-24T00:43:26;10.20;99.90
15160;DHT22;7680;48.800;9.680;2023-04-24T00:46:00;10.10;99.90
15160;DHT22;7680;48.800;9.680;2023-04-24T00:48:34;10.00;99.90
15160;DHT22;7680;48.800;9.680;2023-04-24T00:51:08;10.10;99.90
15160;DHT22;7680;48.800;9.680;2023-04-24T00:53:41;9.90;99.90
15160;DHT22;7680;48.800;9.680;2023-04-24T00:56:14;9.90;99.90
15160;DHT22;7680;48.800;9.680;2023-04-24T00:58:48;10.00;99.90
15160;DHT22;7680;48.800;9.680;2023-04-24T01:01:21;10.00;99.90
15160;DHT22;7680;48.800;9.680;2023-04-24T01:03:57;10.00;99.90
15160;DHT22;7680;48.800;9.680;2023-04-24T01:06:31;10.00;99.90
15160;DHT22;7680;48.800;9.680;2023-04-24T01:09:05;9.90;99.90
15160;DHT22;7680;48.800;9.680;2023-04-24T01:11:40;9.90;99.90
15160;DHT22;7680;48.800;9.680;2023-04-24T01:14:14;10.00;99.90
15160;DHT22;7680;48.800;9.680;2023-04-24T01:16:47;10.00;99.90
15160;DHT22;7680;48.800;9.680;2023-04-24T01:19:21;9.90;99.90
15160;DHT22;7680;48.800;9.680;2023-04-24T01:21:58;10.00;99.90
15160;DHT22;7680;48.800;9.680;2023-04-24T01:24:32;10.00;99.90
15160;DHT22;7680;48.800;9.680;2023-04-24T01:27:06;10.00;99.90
15160;DHT22;7680;48.800;9.680;2023-04-24T01:29:40;9.90;99.90
15160;DHT22;7680;48.800;9.680;2023-04-24T01:32:14;10.00;99.90
15160;DHT22;7680;48.800;9.680;2023-04-24T01:34:47;9.80;99.90
15160;DHT22;7680;48.800;9.680;2023-04-24T01:37:21;9.80;99.90
15160;DHT22;7680;48.800;9.680;2023-04-24T01:39:55;9.80;99.90
15160;DHT22;7680;48.800;9.680;2023-04-24T01:42:28;9.80;99.90
15160;DHT22;7680;48.800;9.680;2023-04-24T01:45:03;9.80;99.90
15160;DHT22;7680;48.800;9.680;2023-04-24T01:47:37;9.80;99.90
15160;DHT22;7680;48.800;9.680;2023-04-24T01:50:11;9.90;99.90
15160;DHT22;7680;48.800;9.680;2023-04-24T01:52:44;9.90;99.90
15160;DHT22;7680;48.800;9.680;2023-04-24T01:55:19;9.80;99.90
15160;DHT22;7680;48.800;9.680;2023-04-24T01:57:52;9.80;99.90
15160;DHT22;7680;48.800;9.680;2023-04-24T02:00:28;10.00;99.90
15160;DHT22;7680;48.800;9.680;2023-04-24T02:03:01;9.90;99.90
15160;DHT22;7680;48.800;9.680;2023-04-24T02:05:34;9.90;99.90
15160;DHT22;7680;48.800;9.680;2023-04-24T02:08:07;9.90;99.90
15160;DHT22;7680;48.800;9.680;2023-04-24T02:10:41;10.00;99.90
15160;DHT22;7680;48.800;9.680;2023-04-24T02:13:15;10.00;99.90
15160;DHT22;7680;48.800;9.680;2023-04-24T02:15:48;10.00;99.90
15160;DHT22;7680;48.800;9.680;2023-04-24T02:18:20;9.90;99.90
15160;DHT22;7680;48.800;9.680;2023-04-24T02:20:54;9.80;99.90
15160;DHT22;7680;48.800;9.680;2023-04-24T02:23:27;9.80;99.90
15160;DHT22;7680;48.800;9.680;2023-04-24T02:26:01;9.80;99.90
15160;DHT22;7680;48.800;9.680;2023-04-24T02:28:34;9.80;99.90
15160;DHT22;7680;48.800;9.680;2023-04-24T02:31:07;9.80;99.90
15160;DHT22;7680;48.800;9.680;2023-04-24T02:33:40;9.80;99.90
15160;DHT22;7680;48.800;9.680;2023-04-24T02:36:13;9.70;99.90
15160;DHT22;7680;48.800;9.680;2023-04-24T02:38:46;9.80;99.90
15160;DHT22;7680;48.800;9.680;2023-04-24T02:41:21;9.70;99.90
15160;DHT22;7680;48.800;9.680;2023-04-24T02:43:54;9.70;99.90
15160;DHT22;7680;48.800;9.680;2023-04-24T02:46:27;9.70;99.90
15160;DHT22;7680;48.800;9.680;2023-04-24T02:49:00;9.70;99.90
15160;DHT22;7680;48.800;9.680;2023-04-24T02:51:34;9.80;99.90
15160;DHT22;7680;48.800;9.680;2023-04-24T02:54:09;9.70;99.90
15160;DHT22;7680;48.800;9.680;2023-04-24T02:56:44;9.80;99.90
15160;DHT22;7680;48.800;9.680;2023-04-24T02:59:16;9.90;99.90
15160;DHT22;7680;48.800;9.680;2023-04-24T03:01:49;9.90;99.90
15160;DHT22;7680;48.800;9.680;2023-04-24T03:04:22;10.00;99.90
15160;DHT22;7680;48.800;9.680;2023-04-24T03:06:56;9.90;99.90
15160;DHT22;7680;48.800;9.680;2023-04-24T03:09:29;9.90;99.90
15160;DHT22;7680;48.800;9.680;2023-04-24T03:12:03;9.90;99.90
15160;DHT22;7680;48.800;9.680;2023-04-24T03:14:36;9.90;99.90
15160;DHT22;7680;48.800;9.680;2023-04-24T03:17:09;9.90;99.90
15160;DHT22;7680;48.800;9.680;2023-04-24T03:19:42;9.90;99.90
15160;DHT22;7680;48.800;9.680;2023-04-24T03:22:16;9.90;99.90
15160;DHT22;7680;48.800;9.680;2023-04-24T03:24:49;10.00;99.90
15160;DHT22;7680;48.800;9.680;2023-04-24T03:27:23;10.00;99.90
15160;DHT22;7680;48.800;9.680;2023-04-24T03:29:56;10.00;99.90
15160;DHT22;7680;48.800;9.680;2023-04-24T03:32:29;10.00;99.90
15160;DHT22;7680;48.800;9.680;2023-04-24T03:35:04;10.10;99.90
15160;DHT22;7680;48.800;9.680;2023-04-24T03:37:38;10.10;99.90
15160;DHT22;7680;48.800;9.680;2023-04-24T03:40:11;10.10;99.90
15160;DHT22;7680;48.800;9.680;2023-04-24T03:42:45;10.10;99.90
15160;DHT22;7680;48.800;9.680;2023-04-24T03:45:18;10.10;99.90
15160;DHT22;7680;48.800;9.680;2023-04-24T03:47:51;10.20;99.90
15160;DHT22;7680;48.800;9.680;2023-04-24T03:50:25;10.20;99.90
15160;DHT22;7680;48.800;9.680;2023-04-24T03:52:58;10.00;99.90
15160;DHT22;7680;48.800;9.680;2023-04-24T03:55:31;9.90;99.90
15160;DHT22;7680;48.800;9.680;2023-04-24T03:58:05;9.90;99.90
15160;DHT22;7680;48.800;9.680;2023-04-24T04:00:38;9.90;99.90
15160;DHT22;7680;48.800;9.680;2023-04-24T04:03:12;9.90;99.90
15160;DHT22;7680;48.800;9.680;2023-04-24T04:05:46;9.90;99.90
15160;DHT22;7680;48.800;9.680;2023-04-24T04:08:19;9.90;99.90
15160;DHT22;7680;48.800;9.680;2023-04-24T04:10:52;10.00;99.90
15160;DHT22;7680;48.800;9.680;2023-04-24T04:13:26;10.00;99.90
15160;DHT22;7680;48.800;9.680;2023-04-24T04:15:59;10.00;99.90
15160;DHT22;7680;48.800;9.680;2023-04-24T04:18:32;10.00;99.90
15160;DHT22;7680;48.800;9.680;2023-04-24T04:21:06;10.00;99.90
15160;DHT22;7680;48.800;9.680;2023-04-24T04:23:39;9.90;99.90
15160;DHT22;7680;48.800;9.680;2023-04-24T04:26:12;9.90;99.90
15160;DHT22;7680;48.800;9.680;2023-04-24T04:28:46;9.80;99.90
15160;DHT22;7680;48.800;9.680;2023-04-24T04:31:20;9.90;99.90
15160;DHT22;7680;48.800;9.680;2023-04-24T04:33:54;9.90;99.90
15160;DHT22;7680;48.800;9.680;2023-04-24T04:36:27;9.90;99.90
15160;DHT22;7680;48.800;9.680;2023-04-24T04:39:01;9.90;99.90
15160;DHT22;7680;48.800;9.680;2023-04-24T04:41:34;9.80;99.90
15160;DHT22;7680;48.800;9.680;2023-04-24T04:44:08;9.80;99.90
15160;DHT22;7680;48.800;9.680;2023-04-24T04:46:41;9.80;99.90
15160;DHT22;7680;48.800;9.680;2023-04-24T04:49:15;9.80;99.90
15160;DHT22;7680;48.800;9.680;2023-04-24T04:51:49;9.90;99.90
15160;DHT22;7680;48.800;9.680;2023-04-24T04:54:22;9.80;99.90
15160;DHT22;7680;48.800;9.680;2023-04-24T04:56:55;9.90;99.90
15160;DHT22;7680;48.800;9.680;2023-04-24T04:59:30;10.00;99.90
15160;DHT22;7680;48.800;9.680;2023-04-24T05:02:03;10.00;99.90
15160;DHT22;7680;48.800;9.680;2023-04-24T05:04:36;10.10;99.90
15160;DHT22;7680;48.800;9.680;2023-04-24T05:07:11;10.10;99.90
15160;DHT22;7680;48.800;9.680;2023-04-24T05:09:47;10.10;99.90
15160;DHT22;7680;48.800;9.680;2023-04-24T05:12:20;10.10;99.90
15160;DHT22;7680;48.800;9.680;2023-04-24T05:14:55;10.10;99.90
15160;DHT22;7680;48.800;9.680;2023-04-24T05:17:28;10.00;99.90
15160;DHT22;7680;48.800;9.680;2023-04-24T05:20:01;9.90;99.90
15160;DHT22;7680;48.800;9.680;2023-04-24T05:22:35;9.80;99.90
15160;DHT22;7680;48.800;9.680;2023-04-24T05:25:08;9.80;99.90
15160;DHT22;7680;48.800;9.680;2023-04-24T05:27:41;9.80;99.90
15160;DHT22;7680;48.800;9.680;2023-04-24T05:30:16;9.70;99.90
15160;DHT22;7680;48.800;9.680;2023-04-24T05:32:49;9.70;99.90
15160;DHT22;7680;48.800;9.680;2023-04-24T05:35:22;9.80;99.90
15160;DHT22;7680;48.800;9.680;2023-04-24T05:37:55;9.70;99.90
15160;DHT22;7680;48.800;9.680;2023-04-24T05:40:28;9.70;99.90
15160;DHT22;7680;48.800;9.680;2023-04-24T05:43:01;9.70;99.90
15160;DHT22;7680;48.800;9.680;2023-04-24T05:45:35;9.70;99.90
15160;DHT22;7680;48.800;9.680;2023-04-24T05:48:08;9.70;99.90
15160;DHT22;7680;48.800;9.680;2023-04-24T05:50:41;9.70;99.90
15160;DHT22;7680;48.800;9.680;2023-04-24T05:53:14;9.80;99.90
15160;DHT22;7680;48.800;9.680;2023-04-24T05:55:47;9.80;99.90
15160;DHT22;7680;48.800;9.680;2023-04-24T05:58:21;9.80;99.90
15160;DHT22;7680;48.800;9.680;2023-04-24T06:00:55;9.80;99.90
15160;DHT22;7680;48.800;9.680;2023-04-24T06:03:30;9.80;99.90
15160;DHT22;7680;48.800;9.680;2023-04-24T06:06:05;9.80;99.90
15160;DHT22;7680;48.800;9.680;2023-04-24T06:08:38;9.80;99.90
15160;DHT22;7680;48.800;9.680;2023-04-24T06:11:11;9.90;99.90
15160;DHT22;7680;48.800;9.680;2023-04-24T06:13:44;9.90;99.90
15160;DHT22;7680;48.800;9.680;2023-04-24T06:16:19;9.90;99.90
15160;DHT22;7680;48.800;9.680;2023-04-24T06:18:52;10.00;99.90
15160;DHT22;7680;48.800;9.680;2023-04-24T06:21:25;9.90;99.90
15160;DHT22;7680;48.800;9.680;2023-04-24T06:23:59;9.90;99.90
15160;DHT22;7680;48.800;9.680;2023-04-24T06:26:32;9.90;99.90
15160;DHT22;7680;48.800;9.680;2023-04-24T06:29:06;10.00;99.90
15160;DHT22;7680;48.800;9.680;2023-04-24T06:31:40;10.00;99.90
15160;DHT22;7680;48.800;9.680;2023-04-24T06:34:13;10.10;99.90
15160;DHT22;7680;48.800;9.680;2023-04-24T06:36:47;10.20;99.90
15160;DHT22;7680;48.800;9.680;2023-04-24T06:39:20;10.30;99.90
15160;DHT22;7680;48.800;9.680;2023-04-24T06:41:53;10.20;99.90
15160;DHT22;7680;48.800;9.680;2023-04-24T06:44:26;10.30;99.90
15160;DHT22;7680;48.800;9.680;2023-04-24T06:47:00;10.40;99.90
15160;DHT22;7680;48.800;9.680;2023-04-24T06:49:33;10.40;99.90
15160;DHT22;7680;48.800;9.680;2023-04-24T06:52:06;10.40;99.90
15160;DHT22;7680;48.800;9.680;2023-04-24T06:54:41;10.50;99.90
15160;DHT22;7680;48.800;9.680;2023-04-24T06:57:14;10.70;99.90
15160;DHT22;7680;48.800;9.680;2023-04-24T06:59:47;10.90;99.90
15160;DHT22;7680;48.800;9.680;2023-04-24T07:02:22;11.00;99.90
15160;DHT22;7680;48.800;9.680;2023-04-24T07:04:55;11.00;99.90
15160;DHT22;7680;48.800;9.680;2023-04-24T07:07:29;11.50;99.90
15160;DHT22;7680;48.800;9.680;2023-04-24T07:10:02;12.10;99.90
15160;DHT22;7680;48.800;9.680;2023-04-24T07:12:35;12.70;99.90
15160;DHT22;7680;48.800;9.680;2023-04-24T07:15:09;13.10;99.90
15160;DHT22;7680;48.800;9.680;2023-04-24T07:17:44;13.50;99.90
15160;DHT22;7680;48.800;9.680;2023-04-24T07:20:17;13.70;99.90
15160;DHT22;7680;48.800;9.680;2023-04-24T07:22:50;13.80;99.90
15160;DHT22;7680;48.800;9.680;2023-04-24T07:25:25;13.90;99.90
15160;DHT22;7680;48.800;9.680;2023-04-24T07:27:58;14.40;99.90
15160;DHT22;7680;48.800;9.680;2023-04-24T07:30:32;14.50;99.90
15160;DHT22;7680;48.800;9.680;2023-04-24T07:33:06;14.60;99.90
15160;DHT22;7680;48.800;9.680;2023-04-24T07:35:39;14.70;99.90
15160;DHT22;7680;48.800;9.680;2023-04-24T07:38:12;14.80;99.90
15160;DHT22;7680;48.800;9.680;2023-04-24T07:40:45;15.10;99.90
15160;DHT22;7680;48.800;9.680;2023-04-24T07:43:21;15.20;99.90
15160;DHT22;7680;48.800;9.680;2023-04-24T07:45:55;15.30;99.90
15160;DHT22;7680;48.800;9.680;2023-04-24T07:48:29;15.40;99.90
15160;DHT22;7680;48.800;9.680;2023-04-24T07:51:02;14.80;99.90
15160;DHT22;7680;48.800;9.680;2023-04-24T07:53:36;14.50;99.90
15160;DHT22;7680;48.800;9.680;2023-04-24T07:56:09;14.10;99.90
15160;DHT22;7680;48.800;9.680;2023-04-24T07:58:42;14.00;99.90
15160;DHT22;7680;48.800;9.680;2023-04-24T08:01:15;14.00;99.90
15160;DHT22;7680;48.800;9.680;2023-04-24T08:03:50;14.00;99.90
15160;DHT22;7680;48.800;9.680;2023-04-24T08:06:24;13.90;99.90
15160;DHT22;7680;48.800;9.680;2023-04-24T08:09:00;13.50;99.90
15160;DHT22;7680;48.800;9.680;2023-04-24T08:11:33;13.20;99.90
15160;DHT22;7680;48.800;9.680;2023-04-24T08:14:06;13.20;99.90
15160;DHT22;7680;48.800;9.680;2023-04-24T08:16:39;12.70;99.90
15160;DHT22;7680;48.800;9.680;2023-04-24T08:19:13;12.60;99.90
15160;DHT22;7680;48.800;9.680;2023-04-24T08:21:46;12.80;99.90
15160;DHT22;7680;48.800;9.680;2023-04-24T08:24:19;12.90;99.90
15160;DHT22;7680;48.800;9.680;2023-04-24T08:26:52;13.10;99.90
15160;DHT22;7680;48.800;9.680;2023-04-24T08:29:28;13.20;99.90
15160;DHT22;7680;48.800;9.680;2023-04-24T08:32:01;13.50;99.90
15160;DHT22;7680;48.800;9.680;2023-04-24T08:34:35;13.80;99.90
15160;DHT22;7680;48.800;9.680;2023-04-24T08:37:08;14.00;99.90
15160;DHT22;7680;48.800;9.680;2023-04-24T08:39:42;14.10;99.90
15160;DHT22;7680;48.800;9.680;2023-04-24T08:42:15;13.90;99.90
15160;DHT22;7680;48.800;9.680;2023-04-24T08:44:50;13.70;99.90
15160;DHT22;7680;48.800;9.680;2023-04-24T08:47:23;13.50;99.90
15160;DHT22;7680;48.800;9.680;2023-04-24T08:49:58;13.30;99.90
15160;DHT22;7680;48.800;9.680;2023-04-24T08:52:34;13.20;99.90
15160;DHT22;7680;48.800;9.680;2023-04-24T08:55:08;13.00;99.90
15160;DHT22;7680;48.800;9.680;2023-04-24T08:57:41;12.70;99.90
15160;DHT22;7680;48.800;9.680;2023-04-24T09:00:17;12.70;99.90
15160;DHT22;7680;48.800;9.680;2023-04-24T09:02:53;12.40;99.90
15160;DHT22;7680;48.800;9.680;2023-04-24T09:05:28;12.40;99.90
15160;DHT22;7680;48.800;9.680;2023-04-24T09:08:02;12.40;99.90
15160;DHT22;7680;48.800;9.680;2023-04-24T09:10:37;12.20;99.90
15160;DHT22;7680;48.800;9.680;2023-04-24T09:13:11;12.40;99.90
15160;DHT22;7680;48.800;9.680;2023-04-24T09:15:44;12.90;99.90
15160;DHT22;7680;48.800;9.680;2023-04-24T09:18:17;13.20;99.90
15160;DHT22;7680;48.800;9.680;2023-04-24T09:21:07;13.60;99.90
15160;DHT22;7680;48.800;9.680;2023-04-24T09:23:41;14.10;99.90
15160;DHT22;7680;48.800;9.680;2023-04-24T09:26:14;14.40;99.90
15160;DHT22;7680;48.800;9.680;2023-04-24T09:28:47;14.50;99.90
15160;DHT22;7680;48.800;9.680;2023-04-24T09:31:20;14.40;99.90
15160;DHT22;7680;48.800;9.680;2023-04-24T09:33:55;14.10;99.90
15160;DHT22;7680;48.800;9.680;2023-04-24T09:36:35;13.90;99.90
15160;DHT22;7680;48.800;9.680;2023-04-24T09:39:12;13.60;99.90
15160;DHT22;7680;48.800;9.680;2023-04-24T09:41:48;13.40;99.90
15160;DHT22;7680;48.800;9.680;2023-04-24T09:44:23;13.20;99.90
15160;DHT22;7680;48.800;9.680;2023-04-24T09:46:58;13.10;99.90
15160;DHT22;7680;48.800;9.680;2023-04-24T09:49:32;13.10;99.90
15160;DHT22;7680;48.800;9.680;2023-04-24T09:52:09;12.90;99.90
15160;DHT22;7680;48.800;9.680;2023-04-24T09:54:52;12.90;99.90
15160;DHT22;7680;48.800;9.680;2023-04-24T09:57:26;12.90;99.90
15160;DHT22;7680;48.800;9.680;2023-04-24T09:59:59;13.00;99.90
15160;DHT22;7680;48.800;9.680;2023-04-24T10:02:32;12.70;99.90
15160;DHT22;7680;48.800;9.680;2023-04-24T10:05:05;12.60;99.90
15160;DHT22;7680;48.800;9.680;2023-04-24T10:07:40;12.40;99.90
15160;DHT22;7680;48.800;9.680;2023-04-24T10:10:13;12.20;99.90
15160;DHT22;7680;48.800;9.680;2023-04-24T10:12:47;12.00;99.90
15160;DHT22;7680;48.800;9.680;2023-04-24T10:15:20;11.90;99.90
15160;DHT22;7680;48.800;9.680;2023-04-24T10:17:54;12.10;99.90
15160;DHT22;7680;48.800;9.680;2023-04-24T10:20:28;12.10;99.90
15160;DHT22;7680;48.800;9.680;2023-04-24T10:23:04;12.30;99.90
15160;DHT22;7680;48.800;9.680;2023-04-24T10:25:37;12.40;99.90
15160;DHT22;7680;48.800;9.680;2023-04-24T10:28:10;12.70;99.90
15160;DHT22;7680;48.800;9.680;2023-04-24T10:30:45;13.00;99.90
15160;DHT22;7680;48.800;9.680;2023-04-24T10:33:19;13.40;99.90
15160;DHT22;7680;48.800;9.680;2023-04-24T10:35:52;13.90;99.90
15160;DHT22;7680;48.800;9.680;2023-04-24T10:38:28;13.60;99.90
15160;DHT22;7680;48.800;9.680;2023-04-24T10:41:08;13.40;99.90
15160;DHT22;7680;48.800;9.680;2023-04-24T10:43:47;13.20;99.90
15160;DHT22;7680;48.800;9.680;2023-04-24T10:46:22;13.00;99.90
15160;DHT22;7680;48.800;9.680;2023-04-24T10:48:55;12.70;99.90
15160;DHT22;7680;48.800;9.680;2023-04-24T10:51:45;12.80;99.90
15160;DHT22;7680;48.800;9.680;2023-04-24T10:54:25;12.70;99.90
15160;DHT22;7680;48.800;9.680;2023-04-24T10:57:27;12.70;99.90
15160;DHT22;7680;48.800;9.680;2023-04-24T11:00:19;12.80;99.90
15160;DHT22;7680;48.800;9.680;2023-04-24T11:02:53;13.00;99.90
15160;DHT22;7680;48.800;9.680;2023-04-24T11:05:55;13.20;99.90
15160;DHT22;7680;48.800;9.680;2023-04-24T11:08:32;13.40;99.90
15160;DHT22;7680;48.800;9.680;2023-04-24T11:11:12;13.50;99.90
15160;DHT22;7680;48.800;9.680;2023-04-24T11:14:02;13.70;99.90
15160;DHT22;7680;48.800;9.680;2023-04-24T11:16:43;13.80;99.40
15160;DHT22;7680;48.800;9.680;2023-04-24T11:19:24;13.60;98.50
15160;DHT22;7680;48.800;9.680;2023-04-24T11:21:59;13.40;97.70
15160;DHT22;7680;48.800;9.680;2023-04-24T11:24:38;13.30;97.90
15160;DHT22;7680;48.800;9.680;2023-04-24T11:27:15;13.20;98.70
15160;DHT22;7680;48.800;9.680;2023-04-24T11:29:59;13.10;98.30
15160;DHT22;7680;48.800;9.680;2023-04-24T11:32:36;13.00;99.10
15160;DHT22;7680;48.800;9.680;2023-04-24T11:35:13;13.00;98.70
15160;DHT22;7680;48.800;9.680;2023-04-24T11:37:49;13.10;99.30
15160;DHT22;7680;48.800;9.680;2023-04-24T11:40:25;13.10;99.90
15160;DHT22;7680;48.800;9.680;2023-04-24T11:43:00;13.10;99.40
15160;DHT22;7680;48.800;9.680;2023-04-24T11:45:33;13.10;98.70
15160;DHT22;7680;48.800;9.680;2023-04-24T11:48:06;13.10;99.30
15160;DHT22;7680;48.800;9.680;2023-04-24T11:50:39;13.10;99.90
15160;DHT22;7680;48.800;9.680;2023-04-24T11:53:19;13.20;99.90
15160;DHT22;7680;48.800;9.680;2023-04-24T11:55:53;13.20;99.40
15160;DHT22;7680;48.800;9.680;2023-04-24T11:58:27;13.20;99.90
15160;DHT22;7680;48.800;9.680;2023-04-24T12:01:00;13.20;99.90
15160;DHT22;7680;48.800;9.680;2023-04-24T12:03:33;13.10;99.90
15160;DHT22;7680;48.800;9.680;2023-04-24T12:06:07;13.20;99.80
15160;DHT22;7680;48.800;9.680;2023-04-24T12:08:40;13.10;99.90
15160;DHT22;7680;48.800;9.680;2023-04-24T12:11:15;12.90;99.90
15160;DHT22;7680;48.800;9.680;2023-04-24T12:13:51;12.70;99.90
15160;DHT22;7680;48.800;9.680;2023-04-24T12:16:26;12.70;99.90
15160;DHT22;7680;48.800;9.680;2023-04-24T12:18:59;12.80;99.90
15160;DHT22;7680;48.800;9.680;2023-04-24T12:21:32;13.20;99.90
15160;DHT22;7680;48.800;9.680;2023-04-24T12:24:06;13.60;99.90
15160;DHT22;7680;48.800;9.680;2023-04-24T12:26:43;13.50;99.90
15160;DHT22;7680;48.800;9.680;2023-04-24T12:29:21;13.40;99.90
15160;DHT22;7680;48.800;9.680;2023-04-24T12:31:54;13.50;99.40
15160;DHT22;7680;48.800;9.680;2023-04-24T12:34:27;13.20;98.60
15160;DHT22;7680;48.800;9.680;2023-04-24T12:37:10;13.10;98.20
15160;DHT22;7680;48.800;9.680;2023-04-24T12:39:57;13.00;99.00
15160;DHT22;7680;48.800;9.680;2023-04-24T12:42:32;12.80;99.90
15160;DHT22;7680;48.800;9.680;2023-04-24T12:45:07;12.90;99.50
15160;DHT22;7680;48.800;9.680;2023-04-24T12:47:41;12.70;99.90
15160;DHT22;7680;48.800;9.680;2023-04-24T12:50:15;12.80;99.90
15160;DHT22;7680;48.800;9.680;2023-04-24T12:52:48;12.90;99.90
15160;DHT22;7680;48.800;9.680;2023-04-24T12:55:22;13.00;99.90
15160;DHT22;7680;48.800;9.680;2023-04-24T12:57:54;13.20;99.90
15160;DHT22;7680;48.800;9.680;2023-04-24T13:00:29;13.40;99.50
15160;DHT22;7680;48.800;9.680;2023-04-24T13:03:02;13.50;98.90
15160;DHT22;7680;48.800;9.680;2023-04-24T13:05:36;13.50;99.90
15160;DHT22;7680;48.800;9.680;2023-04-24T13:08:09;13.50;99.70
15160;DHT22;7680;48.800;9.680;2023-04-24T13:10:42;13.50;99.70
15160;DHT22;7680;48.800;9.680;2023-04-24T13:13:15;13.40;99.70
15160;DHT22;7680;48.800;9.680;2023-04-24T13:15:50;13.30;99.50
15160;DHT22;7680;48.800;9.680;2023-04-24T13:18:23;13.30;98.40
15160;DHT22;7680;48.800;9.680;2023-04-24T13:20:56;13.00;99.60
15160;DHT22;7680;48.800;9.680;2023-04-24T13:23:29;13.10;99.90
15160;DHT22;7680;48.800;9.680;2023-04-24T13:26:02;13.10;99.90
15160;DHT22;7680;48.800;9.680;2023-04-24T13:28:35;13.00;99.60
15160;DHT22;7680;48.800;9.680;2023-04-24T13:31:11;13.00;98.40
15160;DHT22;7680;48.800;9.680;2023-04-24T13:33:45;13.10;98.70
15160;DHT22;7680;48.800;9.680;2023-04-24T13:36:18;13.00;99.20
15160;DHT22;7680;48.800;9.680;2023-04-24T13:38:51;13.10;99.70
15160;DHT22;7680;48.800;9.680;2023-04-24T13:41:24;12.90;99.80
15160;DHT22;7680;48.800;9.680;2023-04-24T13:43:57;12.80;99.50
15160;DHT22;7680;48.800;9.680;2023-04-24T13:46:32;12.80;99.90
15160;DHT22;7680;48.800;9.680;2023-04-24T13:49:05;12.70;99.90
15160;DHT22;7680;48.800;9.680;2023-04-24T13:51:38;12.60;99.90
15160;DHT22;7680;48.800;9.680;2023-04-24T13:54:12;12.60;99.90
15160;DHT22;7680;48.800;9.680;2023-04-24T13:56:45;12.40;99.90
15160;DHT22;7680;48.800;9.680;2023-04-24T13:59:19;12.00;99.90
15160;DHT22;7680;48.800;9.680;2023-04-24T14:01:54;11.70;99.90
15160;DHT22;7680;48.800;9.680;2023-04-24T14:04:27;11.60;99.90
15160;DHT22;7680;48.800;9.680;2023-04-24T14:07:01;11.50;99.90
15160;DHT22;7680;48.800;9.680;2023-04-24T14:09:34;11.50;99.90
15160;DHT22;7680;48.800;9.680;2023-04-24T14:12:07;11.60;99.90
15160;DHT22;7680;48.800;9.680;2023-04-24T14:14:40;11.70;99.90
15160;DHT22;7680;48.800;9.680;2023-04-24T14:17:14;11.80;99.90
15160;DHT22;7680;48.800;9.680;2023-04-24T14:19:47;11.90;99.90
15160;DHT22;7680;48.800;9.680;2023-04-24T14:22:20;11.90;99.90
15160;DHT22;7680;48.800;9.680;2023-04-24T14:24:53;12.00;99.90
15160;DHT22;7680;48.800;9.680;2023-04-24T14:27:26;12.10;99.90
15160;DHT22;7680;48.800;9.680;2023-04-24T14:29:59;12.10;99.90
15160;DHT22;7680;48.800;9.680;2023-04-24T14:32:34;12.20;99.90
15160;DHT22;7680;48.800;9.680;2023-04-24T14:35:08;12.10;99.90
15160;DHT22;7680;48.800;9.680;2023-04-24T14:37:41;12.00;99.90
15160;DHT22;7680;48.800;9.680;2023-04-24T14:40:14;12.00;99.90
15160;DHT22;7680;48.800;9.680;2023-04-24T14:42:51;11.70;99.90
15160;DHT22;7680;48.800;9.680;2023-04-24T14:45:24;11.40;99.90
15160;DHT22;7680;48.800;9.680;2023-04-24T14:47:59;11.00;99.90
15160;DHT22;7680;48.800;9.680;2023-04-24T14:50:32;10.80;99.90
15160;DHT22;7680;48.800;9.680;2023-04-24T14:53:05;10.60;99.90
15160;DHT22;7680;48.800;9.680;2023-04-24T14:55:39;10.70;99.90
15160;DHT22;7680;48.800;9.680;2023-04-24T14:58:12;10.60;99.90
15160;DHT22;7680;48.800;9.680;2023-04-24T15:00:45;10.80;99.90
15160;DHT22;7680;48.800;9.680;2023-04-24T15:03:22;10.90;99.90
15160;DHT22;7680;48.800;9.680;2023-04-24T15:05:55;11.10;99.90
15160;DHT22;7680;48.800;9.680;2023-04-24T15:08:29;11.30;99.90
15160;DHT22;7680;48.800;9.680;2023-04-24T15:11:02;11.40;99.90
15160;DHT22;7680;48.800;9.680;2023-04-24T15:13:35;11.50;99.90
15160;DHT22;7680;48.800;9.680;2023-04-24T15:16:08;11.80;99.90
15160;DHT22;7680;48.800;9.680;2023-04-24T15:18:42;11.90;99.90
15160;DHT22;7680;48.800;9.680;2023-04-24T15:21:16;12.00;99.90
15160;DHT22;7680;48.800;9.680;2023-04-24T15:23:49;12.10;99.90
15160;DHT22;7680;48.800;9.680;2023-04-24T15:26:23;12.10;99.90
15160;DHT22;7680;48.800;9.680;2023-04-24T15:28:56;12.00;99.90
15160;DHT22;7680;48.800;9.680;2023-04-24T15:31:29;12.10;99.90
15160;DHT22;7680;48.800;9.680;2023-04-24T15:34:03;12.10;99.90
15160;DHT22;7680;48.800;9.680;2023-04-24T15:36:36;11.90;99.90
15160;DHT22;7680;48.800;9.680;2023-04-24T15:39:10;11.90;99.90
15160;DHT22;7680;48.800;9.680;2023-04-24T15:41:43;11.90;99.90
15160;DHT22;7680;48.800;9.680;2023-04-24T15:44:16;11.80;99.90
15160;DHT22;7680;48.800;9.680;2023-04-24T15:46:49;12.00;99.90
15160;DHT22;7680;48.800;9.680;2023-04-24T15:49:25;12.00;99.90
15160;DHT22;7680;48.800;9.680;2023-04-24T15:51:58;12.00;99.90
15160;DHT22;7680;48.800;9.680;2023-04-24T15:54:31;11.90;99.90
15160;DHT22;7680;48.800;9.680;2023-04-24T15:57:04;11.90;99.90
15160;DHT22;7680;48.800;9.680;2023-04-24T15:59:37;11.90;99.90
15160;DHT22;7680;48.800;9.680;2023-04-24T16:02:12;12.00;99.90
15160;DHT22;7680;48.800;9.680;2023-04-24T16:04:51;11.90;99.90
15160;DHT22;7680;48.800;9.680;2023-04-24T16:07:24;11.90;99.90
15160;DHT22;7680;48.800;9.680;2023-04-24T16:09:57;12.00;99.90
15160;DHT22;7680;48.800;9.680;2023-04-24T16:12:30;12.00;99.90
15160;DHT22;7680;48.800;9.680;2023-04-24T16:15:04;12.00;99.90
15160;DHT22;7680;48.800;9.680;2023-04-24T16:17:38;12.00;99.90
15160;DHT22;7680;48.800;9.680;2023-04-24T16:20:13;12.00;99.90
15160;DHT22;7680;48.800;9.680;2023-04-24T16:22:46;12.00;99.90
15160;DHT22;7680;48.800;9.680;2023-04-24T16:25:19;11.90;99.90
15160;DHT22;7680;48.800;9.680;2023-04-24T16:27:52;12.10;99.90
15160;DHT22;7680;48.800;9.680;2023-04-24T16:30:26;12.00;99.90
15160;DHT22;7680;48.800;9.680;2023-04-24T16:32:59;12.20;99.90
15160;DHT22;7680;48.800;9.680;2023-04-24T16:35:33;12.10;99.90